createdAt,value
2019-03-23T00:01:51.410Z,136.27
2019-03-23T00:04:21.205Z,147.67
2019-03-23T00:06:50.922Z,139.03
2019-03-23T00:09:20.714Z,131.50
2019-03-23T00:11:50.493Z,147.90
2019-03-23T00:14:20.184Z,130.73
2019-03-23T00:16:49.943Z,135.47
2019-03-23T00:19:19.635Z,133.43
2019-03-23T00:21:49.366Z,133.33
2019-03-23T00:24:19.046Z,99.70
2019-03-23T00:26:49.056Z,128.43
2019-03-23T00:29:18.794Z,138.60
2019-03-23T00:31:48.486Z,140.73
2019-03-23T00:34:47.850Z,141.93
2019-03-23T00:37:21.128Z,144.80
2019-03-23T00:39:50.918Z,153.23
2019-03-23T00:42:20.681Z,159.43
2019-03-23T00:44:50.402Z,164.97
2019-03-23T00:47:20.107Z,179.17
2019-03-23T00:49:49.847Z,170.67
2019-03-23T00:52:19.561Z,170.60
2019-03-23T00:54:49.257Z,181.67
2019-03-23T00:57:19.004Z,173.60
2019-03-23T00:59:49.017Z,181.90
2019-03-23T01:02:18.797Z,194.07
2019-03-23T01:04:48.533Z,187.93
2019-03-23T01:07:18.250Z,201.40
2019-03-23T01:09:48.056Z,194.77
2019-03-23T01:12:17.843Z,192.90
2019-03-23T01:14:47.531Z,197.90
2019-03-23T01:17:17.276Z,182.00
2019-03-23T01:19:47.028Z,193.37
2019-03-23T01:22:16.757Z,198.20
2019-03-23T01:24:46.560Z,198.23
2019-03-23T01:27:16.301Z,190.17
2019-03-23T01:29:46.042Z,184.47
2019-03-23T01:32:15.855Z,195.80
2019-03-23T01:34:45.588Z,191.47
2019-03-23T01:37:15.325Z,177.00
2019-03-23T01:39:45.112Z,192.17
2019-03-23T01:42:14.838Z,187.03
2019-03-23T01:44:44.540Z,160.73
2019-03-23T01:47:14.279Z,190.03
2019-03-23T01:49:43.976Z,174.30
2019-03-23T01:52:13.715Z,179.33
2019-03-23T01:54:43.396Z,174.93
2019-03-23T01:57:13.168Z,169.47
2019-03-23T01:59:42.874Z,176.43
2019-03-23T02:02:12.722Z,181.30
2019-03-23T02:04:42.463Z,183.50
2019-03-23T02:07:14.053Z,179.77
2019-03-23T02:09:43.613Z,163.77
2019-03-23T02:12:13.330Z,166.03
2019-03-23T02:14:43.071Z,158.90
2019-03-23T02:17:12.786Z,163.70
2019-03-23T02:19:42.525Z,151.47
2019-03-23T02:22:12.314Z,162.97
2019-03-23T02:24:42.004Z,161.27
2019-03-23T02:27:11.826Z,162.60
2019-03-23T02:29:41.511Z,156.13
2019-03-23T02:32:11.245Z,159.80
2019-03-23T02:34:40.951Z,161.07
2019-03-23T02:37:10.720Z,151.10
2019-03-23T02:39:40.440Z,160.77
2019-03-23T02:42:10.155Z,167.00
2019-03-23T02:44:39.927Z,152.93
2019-03-23T02:47:09.917Z,156.03
2019-03-23T02:49:39.609Z,157.97
2019-03-23T02:52:09.394Z,148.90
2019-03-23T02:54:39.121Z,146.87
2019-03-23T02:57:08.941Z,134.67
2019-03-23T02:59:38.802Z,140.07
2019-03-23T03:02:08.696Z,144.10
2019-03-23T03:04:38.477Z,130.90
2019-03-23T03:07:08.214Z,139.90
2019-03-23T03:09:37.915Z,123.40
2019-03-23T03:12:07.654Z,127.43
2019-03-23T03:14:37.393Z,132.37
2019-03-23T03:17:07.121Z,124.93
2019-03-23T03:19:36.850Z,124.07
2019-03-23T03:22:06.542Z,119.67
2019-03-23T03:24:36.307Z,128.40
2019-03-23T03:27:06.005Z,122.97
2019-03-23T03:29:35.717Z,118.13
2019-03-23T03:32:05.480Z,120.77
2019-03-23T03:34:36.524Z,116.17
2019-03-23T03:37:06.196Z,110.53
2019-03-23T03:39:36.009Z,117.67
2019-03-23T03:42:05.924Z,119.17
2019-03-23T03:44:35.630Z,121.63
2019-03-23T03:47:05.358Z,119.70
2019-03-23T03:49:35.188Z,122.97
2019-03-23T03:52:05.100Z,129.03
2019-03-23T03:54:34.783Z,124.90
2019-03-23T03:57:04.452Z,119.00
2019-03-23T03:59:34.215Z,123.83
2019-03-23T04:02:03.971Z,121.03
2019-03-23T04:04:33.730Z,128.40
2019-03-23T04:07:05.937Z,120.30
2019-03-23T04:09:35.683Z,131.67
2019-03-23T04:12:05.433Z,130.20
2019-03-23T04:14:35.255Z,125.90
2019-03-23T04:17:04.953Z,123.33
2019-03-23T04:19:34.708Z,121.97
2019-03-23T04:22:04.431Z,115.67
2019-03-23T04:24:34.174Z,125.60
2019-03-23T04:27:05.125Z,118.57
2019-03-23T04:29:35.111Z,119.20
2019-03-23T04:32:05.739Z,119.87
2019-03-23T04:34:35.485Z,118.27
2019-03-23T04:37:05.199Z,124.27
2019-03-23T04:39:34.949Z,123.03
2019-03-23T04:42:04.677Z,121.33
2019-03-23T04:44:34.396Z,125.13
2019-03-23T04:47:04.077Z,118.87
2019-03-23T04:49:33.896Z,115.77
2019-03-23T04:52:03.589Z,115.03
2019-03-23T04:54:33.305Z,118.63
2019-03-23T04:57:03.748Z,118.40
2019-03-23T04:59:33.625Z,118.00
2019-03-23T05:02:03.377Z,121.13
2019-03-23T05:04:33.114Z,119.73
2019-03-23T05:07:02.889Z,126.47
2019-03-23T05:09:32.582Z,128.23
2019-03-23T05:12:02.583Z,123.37
2019-03-23T05:14:32.307Z,126.70
2019-03-23T05:17:02.009Z,122.97
2019-03-23T05:19:31.743Z,120.73
2019-03-23T05:22:04.059Z,123.73
2019-03-23T05:24:33.789Z,124.97
2019-03-23T05:27:03.504Z,120.27
2019-03-23T05:29:33.229Z,114.33
2019-03-23T05:32:03.021Z,121.47
2019-03-23T05:34:32.746Z,130.07
2019-03-23T05:37:02.429Z,117.97
2019-03-23T05:39:32.131Z,116.30
2019-03-23T05:42:02.266Z,121.57
2019-03-23T05:44:32.177Z,121.17
2019-03-23T05:47:01.883Z,115.17
2019-03-23T05:49:31.644Z,125.73
2019-03-23T05:52:03.776Z,116.83
2019-03-23T05:54:33.479Z,123.23
2019-03-23T05:57:03.203Z,128.67
2019-03-23T05:59:32.907Z,125.63
2019-03-23T06:02:02.692Z,121.87
2019-03-23T06:04:32.461Z,124.33
2019-03-23T06:07:02.154Z,128.97
2019-03-23T06:09:31.893Z,125.00
2019-03-23T06:12:02.247Z,118.57
2019-03-23T06:14:31.942Z,122.73
2019-03-23T06:17:02.302Z,129.77
2019-03-23T06:19:31.988Z,129.73
2019-03-23T06:22:02.531Z,130.07
2019-03-23T06:24:32.256Z,134.43
2019-03-23T06:27:01.966Z,126.83
2019-03-23T06:29:31.873Z,127.63
2019-03-23T06:32:01.649Z,121.87
2019-03-23T06:34:31.299Z,117.30
2019-03-23T06:37:02.744Z,119.47
2019-03-23T06:39:32.433Z,121.20
2019-03-23T06:42:02.171Z,122.17
2019-03-23T06:44:31.896Z,118.87
2019-03-23T06:47:01.620Z,118.03
2019-03-23T06:49:31.386Z,114.40
2019-03-23T06:52:01.081Z,117.90
2019-03-23T06:54:30.874Z,118.73
2019-03-23T06:57:00.797Z,116.60
2019-03-23T06:59:30.526Z,112.60
2019-03-23T07:02:00.235Z,117.47
2019-03-23T07:04:30.237Z,107.97
2019-03-23T07:07:00.004Z,111.50
2019-03-23T07:09:29.692Z,103.27
2019-03-23T07:11:59.415Z,104.80
2019-03-23T07:14:29.397Z,100.90
2019-03-23T07:16:59.083Z,101.77
2019-03-23T07:19:28.903Z,96.87
2019-03-23T07:21:58.691Z,105.93
2019-03-23T07:24:28.391Z,108.80
2019-03-23T07:26:58.169Z,104.07
2019-03-23T07:29:27.883Z,98.97
2019-03-23T07:32:05.600Z,110.10
2019-03-23T07:34:29.509Z,100.20
2019-03-23T07:37:00.660Z,99.17
2019-03-23T07:39:30.698Z,100.53
2019-03-23T07:42:00.456Z,101.10
2019-03-23T07:44:30.245Z,96.33
2019-03-23T07:46:59.968Z,98.03
2019-03-23T07:49:29.651Z,98.07
2019-03-23T07:51:59.396Z,96.97
2019-03-23T07:54:29.110Z,96.77
2019-03-23T07:56:58.911Z,100.67
2019-03-23T07:59:28.707Z,91.67
2019-03-23T08:01:58.401Z,92.67
2019-03-23T08:04:28.544Z,95.23
2019-03-23T08:06:58.324Z,98.07
2019-03-23T08:09:37.350Z,95.23
2019-03-23T08:11:59.528Z,97.37
2019-03-23T08:14:29.249Z,91.40
2019-03-23T08:16:59.031Z,96.47
2019-03-23T08:19:28.861Z,89.20
2019-03-23T08:21:58.711Z,87.60
2019-03-23T08:24:28.420Z,82.87
2019-03-23T08:26:58.125Z,86.90
2019-03-23T08:29:27.875Z,86.93
2019-03-23T08:31:57.654Z,86.43
2019-03-23T08:34:27.950Z,87.50
2019-03-23T08:36:57.658Z,88.00
2019-03-23T08:39:27.402Z,91.93
2019-03-23T08:41:57.106Z,87.73
2019-03-23T08:44:26.810Z,81.30
2019-03-23T08:46:56.546Z,84.27
2019-03-23T08:49:28.563Z,88.63
2019-03-23T08:51:57.866Z,82.80
2019-03-23T08:54:27.594Z,84.23
2019-03-23T08:56:57.327Z,83.93
2019-03-23T08:59:27.048Z,89.23
2019-03-23T09:01:56.765Z,85.67
2019-03-23T09:04:26.571Z,83.23
2019-03-23T09:06:56.566Z,82.97
2019-03-23T09:09:26.267Z,88.03
2019-03-23T09:11:55.973Z,83.90
2019-03-23T09:14:25.709Z,82.33
2019-03-23T09:16:55.468Z,85.93
2019-03-23T09:19:25.460Z,81.37
2019-03-23T09:21:55.273Z,78.87
2019-03-23T09:24:24.987Z,77.33
2019-03-23T09:26:55.027Z,78.23
2019-03-23T09:29:24.848Z,79.00
2019-03-23T09:31:54.584Z,78.40
2019-03-23T09:34:25.167Z,79.23
2019-03-23T09:36:55.003Z,83.10
2019-03-23T09:39:24.964Z,79.40
2019-03-23T09:41:54.685Z,75.60
2019-03-23T09:44:24.400Z,76.13
2019-03-23T09:46:54.204Z,77.47
2019-03-23T09:49:23.960Z,74.67
2019-03-23T09:51:53.724Z,83.00
2019-03-23T09:54:23.493Z,74.13
2019-03-23T09:56:53.290Z,75.60
2019-03-23T09:59:23.039Z,72.73
2019-03-23T10:01:52.752Z,74.83
2019-03-23T10:04:22.464Z,76.07
2019-03-23T10:06:52.177Z,77.17
2019-03-23T10:09:22.001Z,75.27
2019-03-23T10:11:51.731Z,78.30
2019-03-23T10:14:21.465Z,78.63
2019-03-23T10:16:51.207Z,76.23
2019-03-23T10:19:23.186Z,75.97
2019-03-23T10:21:52.357Z,72.13
2019-03-23T10:24:22.150Z,79.87
2019-03-23T10:26:52.322Z,74.47
2019-03-23T10:29:22.195Z,74.57
2019-03-23T10:31:51.935Z,74.53
2019-03-23T10:34:21.709Z,78.07
2019-03-23T10:36:51.576Z,70.83
2019-03-23T10:39:21.370Z,81.63
2019-03-23T10:41:51.417Z,78.87
2019-03-23T10:44:21.213Z,81.23
2019-03-23T10:46:51.011Z,78.23
2019-03-23T10:49:20.778Z,75.13
2019-03-23T10:51:50.524Z,76.60
2019-03-23T10:54:20.473Z,77.57
2019-03-23T10:56:50.259Z,77.10
2019-03-23T10:59:20.229Z,76.93
2019-03-23T11:01:51.339Z,82.17
2019-03-23T11:04:21.059Z,79.77
2019-03-23T11:06:51.086Z,76.10
2019-03-23T11:09:20.774Z,74.57
2019-03-23T11:11:50.750Z,79.03
2019-03-23T11:14:20.600Z,79.80
2019-03-23T11:16:50.392Z,76.73
2019-03-23T11:19:20.264Z,80.20
2019-03-23T11:21:50.998Z,82.53
2019-03-23T11:24:20.700Z,80.30
2019-03-23T11:26:50.398Z,75.33
2019-03-23T11:29:20.304Z,76.60
2019-03-23T11:31:50.077Z,75.07
2019-03-23T11:34:19.824Z,77.17
2019-03-23T11:36:49.589Z,73.63
2019-03-23T11:39:19.280Z,72.83
2019-03-23T11:41:49.018Z,72.60
2019-03-23T11:44:18.742Z,74.37
2019-03-23T11:46:48.482Z,73.03
2019-03-23T11:49:18.199Z,72.87
2019-03-23T11:51:48.549Z,66.03
2019-03-23T11:54:18.263Z,69.87
2019-03-23T11:56:48.011Z,71.07
2019-03-23T11:59:17.742Z,70.10
2019-03-23T12:01:51.760Z,71.90
2019-03-23T12:04:18.950Z,74.80
2019-03-23T12:06:48.711Z,71.13
2019-03-23T12:09:18.404Z,74.50
2019-03-23T12:11:48.130Z,74.10
2019-03-23T12:14:17.878Z,72.67
2019-03-23T12:16:47.615Z,70.30
2019-03-23T12:19:17.312Z,69.27
2019-03-23T12:21:47.024Z,72.83
2019-03-23T12:24:16.860Z,73.67
2019-03-23T12:26:46.592Z,82.60
2019-03-23T12:29:16.291Z,71.90
2019-03-23T12:31:46.036Z,67.73
2019-03-23T12:34:16.019Z,69.27
2019-03-23T12:36:45.830Z,68.77
2019-03-23T12:39:15.521Z,72.10
2019-03-23T12:41:45.230Z,70.63
2019-03-23T12:44:15.012Z,68.90
2019-03-23T12:46:48.439Z,70.70
2019-03-23T12:49:16.173Z,71.67
2019-03-23T12:51:45.905Z,68.20
2019-03-23T12:54:15.706Z,74.47
2019-03-23T12:56:45.538Z,77.90
2019-03-23T12:59:15.297Z,69.07
2019-03-23T13:01:45.040Z,66.47
2019-03-23T13:04:14.744Z,72.47
2019-03-23T13:06:44.481Z,74.63
2019-03-23T13:09:14.215Z,75.83
2019-03-23T13:11:43.918Z,78.60
2019-03-23T13:14:13.619Z,75.33
2019-03-23T13:16:43.548Z,78.10
2019-03-23T13:19:13.262Z,73.87
2019-03-23T13:21:42.952Z,74.00
2019-03-23T13:24:12.691Z,80.40
2019-03-23T13:26:43.111Z,79.10
2019-03-23T13:29:12.830Z,76.73
2019-03-23T13:31:42.625Z,92.43
2019-03-23T13:34:12.329Z,78.83
2019-03-23T13:36:42.080Z,87.23
2019-03-23T13:39:11.764Z,84.43
2019-03-23T13:41:51.218Z,84.73
2019-03-23T13:44:21.257Z,81.60
2019-03-23T13:46:50.930Z,78.07
2019-03-23T13:49:20.672Z,82.50
2019-03-23T13:51:50.394Z,89.60
2019-03-23T13:54:20.078Z,93.00
2019-03-23T13:56:49.841Z,81.70
2019-03-23T13:59:19.532Z,79.90
2019-03-23T14:01:49.365Z,86.43
2019-03-23T14:04:19.136Z,82.80
2019-03-23T14:06:48.955Z,95.10
2019-03-23T14:09:18.705Z,79.57
2019-03-23T14:11:54.920Z,80.63
2019-03-23T14:14:20.013Z,78.03
2019-03-23T14:16:49.857Z,71.67
2019-03-23T14:19:19.584Z,64.17
2019-03-23T14:21:49.334Z,57.90
2019-03-23T14:24:19.140Z,58.47
2019-03-23T14:26:48.991Z,62.50
2019-03-23T14:29:18.709Z,52.33
2019-03-23T14:31:48.473Z,50.73
2019-03-23T14:34:18.221Z,52.80
2019-03-23T14:36:47.938Z,49.00
2019-03-23T14:39:17.746Z,49.63
2019-03-23T14:41:47.461Z,48.77
2019-03-23T14:44:17.192Z,46.80
2019-03-23T14:46:46.903Z,48.10
2019-03-23T14:49:16.629Z,42.33
2019-03-23T14:51:46.386Z,41.43
2019-03-23T14:54:16.081Z,37.70
2019-03-23T14:56:45.867Z,34.37
2019-03-23T14:59:15.629Z,31.27
2019-03-23T15:01:45.433Z,27.53
2019-03-23T15:04:15.222Z,27.30
2019-03-23T15:06:44.987Z,23.30
2019-03-23T15:09:15.069Z,23.10
2019-03-23T15:11:44.763Z,20.20
2019-03-23T15:14:14.578Z,21.67
2019-03-23T15:16:44.306Z,20.53
2019-03-23T15:19:15.607Z,21.67
2019-03-23T15:21:45.616Z,20.37
2019-03-23T15:24:15.340Z,20.90
2019-03-23T15:26:45.069Z,22.40
2019-03-23T15:29:14.839Z,20.27
2019-03-23T15:31:44.634Z,39.97
2019-03-23T15:34:14.530Z,49.47
2019-03-23T15:36:44.256Z,35.57
2019-03-23T15:39:14.105Z,17.70
2019-03-23T15:41:43.786Z,17.37
2019-03-23T15:44:13.537Z,16.77
2019-03-23T15:46:43.287Z,17.50
2019-03-23T15:49:13.033Z,17.57
2019-03-23T15:51:42.726Z,18.57
2019-03-23T15:54:12.453Z,17.77
2019-03-23T15:56:42.157Z,15.80
2019-03-23T15:59:11.887Z,14.83
2019-03-23T16:01:42.059Z,19.20
2019-03-23T16:04:11.806Z,17.70
2019-03-23T16:06:41.626Z,15.00
2019-03-23T16:09:11.332Z,18.17
2019-03-23T16:11:41.080Z,14.37
2019-03-23T16:14:10.827Z,13.43
2019-03-23T16:16:40.645Z,9.77
2019-03-23T16:19:10.346Z,21.50
2019-03-23T16:21:40.087Z,12.53
2019-03-23T16:24:09.825Z,10.00
2019-03-23T16:26:39.622Z,16.53
2019-03-23T16:29:09.774Z,15.00
2019-03-23T16:31:39.558Z,11.30
2019-03-23T16:34:09.271Z,13.97
2019-03-23T16:36:39.023Z,18.50
2019-03-23T16:39:08.794Z,13.43
2019-03-23T16:41:38.489Z,17.53
2019-03-23T16:44:08.646Z,14.23
2019-03-23T16:46:38.362Z,13.03
2019-03-23T16:49:08.103Z,13.67
2019-03-23T16:51:37.912Z,11.27
2019-03-23T16:54:07.677Z,14.80
2019-03-23T16:56:40.474Z,12.17
2019-03-23T16:59:10.176Z,16.63
2019-03-23T17:01:39.920Z,12.80
2019-03-23T17:04:09.664Z,14.33
2019-03-23T17:06:46.214Z,17.10
2019-03-23T17:09:11.107Z,17.47
2019-03-23T17:11:40.899Z,14.57
2019-03-23T17:14:10.612Z,14.27
2019-03-23T17:16:40.362Z,13.47
2019-03-23T17:19:10.188Z,12.93
2019-03-23T17:21:40.069Z,18.73
2019-03-23T17:24:09.906Z,15.70
2019-03-23T17:26:39.998Z,19.37
2019-03-23T17:29:09.708Z,15.50
2019-03-23T17:31:39.437Z,16.27
2019-03-23T17:34:09.298Z,17.23
2019-03-23T17:36:39.029Z,13.90
2019-03-23T17:39:11.743Z,15.20
2019-03-23T17:41:41.586Z,13.93
2019-03-23T17:44:11.377Z,13.83
2019-03-23T17:46:41.066Z,15.77
2019-03-23T17:49:10.794Z,14.63
2019-03-23T17:51:40.516Z,15.63
2019-03-23T17:54:10.207Z,19.17
2019-03-23T17:56:40.040Z,12.97
2019-03-23T17:59:09.780Z,15.93
2019-03-23T18:01:39.504Z,19.83
2019-03-23T18:04:09.195Z,16.30
2019-03-23T18:06:38.955Z,22.37
2019-03-23T18:09:09.070Z,18.17
2019-03-23T18:11:38.763Z,20.40
2019-03-23T18:14:08.497Z,12.33
2019-03-23T18:16:38.223Z,14.43
2019-03-23T18:19:08.001Z,16.17
2019-03-23T18:21:37.805Z,15.90
2019-03-23T18:24:08.006Z,15.20
2019-03-23T18:26:37.781Z,15.47
2019-03-23T18:29:07.877Z,20.77
2019-03-23T18:31:37.572Z,17.33
2019-03-23T18:34:07.355Z,20.43
2019-03-23T18:36:37.078Z,16.43
2019-03-23T18:39:07.817Z,19.57
2019-03-23T18:41:37.668Z,21.87
2019-03-23T18:44:15.802Z,19.80
2019-03-23T18:46:39.135Z,16.03
2019-03-23T18:49:08.952Z,19.87
2019-03-23T18:51:38.832Z,20.20
2019-03-23T18:54:08.698Z,20.87
2019-03-23T18:56:38.424Z,18.90
2019-03-23T18:59:08.260Z,18.37
2019-03-23T19:01:38.115Z,18.13
2019-03-23T19:04:07.926Z,18.17
2019-03-23T19:06:37.715Z,18.70
2019-03-23T19:09:08.218Z,16.13
2019-03-23T19:11:37.975Z,22.17
2019-03-23T19:14:07.757Z,21.53
2019-03-23T19:16:37.483Z,20.77
2019-03-23T19:19:07.224Z,20.40
2019-03-23T19:21:36.930Z,19.87
2019-03-23T19:24:06.804Z,23.03
2019-03-23T19:26:36.884Z,19.47
2019-03-23T19:29:06.673Z,24.53
2019-03-23T19:31:36.379Z,24.53
2019-03-23T19:34:06.216Z,22.63
2019-03-23T19:36:36.076Z,21.87
2019-03-23T19:39:08.532Z,19.40
2019-03-23T19:41:38.266Z,23.30
2019-03-23T19:44:08.019Z,24.03
2019-03-23T19:46:37.781Z,17.57
2019-03-23T19:49:07.525Z,19.67
2019-03-23T19:51:37.261Z,22.53
2019-03-23T19:54:06.997Z,24.17
2019-03-23T19:56:36.785Z,15.70
2019-03-23T19:59:06.525Z,22.77
2019-03-23T20:01:36.301Z,22.17
2019-03-23T20:04:06.206Z,17.53
2019-03-23T20:06:35.924Z,16.03
2019-03-23T20:09:07.769Z,25.97
2019-03-23T20:11:37.501Z,26.00
2019-03-23T20:14:07.284Z,23.20
2019-03-23T20:16:37.363Z,20.97
2019-03-23T20:19:08.148Z,22.77
2019-03-23T20:21:37.975Z,25.33
2019-03-23T20:24:07.838Z,23.57
2019-03-23T20:26:37.619Z,16.37
2019-03-23T20:29:09.221Z,24.10
2019-03-23T20:31:39.029Z,18.83
2019-03-23T20:34:08.911Z,22.13
2019-03-23T20:36:38.671Z,19.97
2019-03-23T20:39:08.594Z,17.30
2019-03-23T20:41:38.337Z,18.40
2019-03-23T20:44:09.691Z,22.27
2019-03-23T20:46:43.538Z,18.60
2019-03-23T20:49:13.457Z,19.40
2019-03-23T20:51:44.747Z,21.63
2019-03-23T20:54:14.565Z,20.10
2019-03-23T20:56:44.712Z,18.20
2019-03-23T20:59:15.724Z,24.90
2019-03-23T21:01:45.567Z,26.23
2019-03-23T21:04:15.258Z,26.50
2019-03-23T21:06:45.153Z,19.30
2019-03-23T21:09:15.123Z,27.97
2019-03-23T21:11:44.862Z,23.80
2019-03-23T21:14:20.306Z,21.03
2019-03-23T21:16:46.105Z,27.67
2019-03-23T21:19:15.813Z,25.63
2019-03-23T21:21:45.563Z,30.20
2019-03-23T21:24:15.336Z,20.80
2019-03-23T21:26:45.332Z,24.30
2019-03-23T21:29:15.988Z,20.17
2019-03-23T21:31:45.752Z,20.30
2019-03-23T21:34:15.623Z,28.30
2019-03-23T21:36:45.339Z,26.07
2019-03-23T21:39:15.027Z,31.93
2019-03-23T21:41:44.823Z,28.77
2019-03-23T21:44:14.533Z,34.87
2019-03-23T21:46:44.253Z,24.50
2019-03-23T21:49:14.249Z,24.60
2019-03-23T21:51:43.946Z,24.30
2019-03-23T21:54:13.702Z,27.37
2019-03-23T21:59:13.998Z,25.97
2019-03-23T22:01:43.826Z,22.97
2019-03-23T22:04:13.521Z,24.73
2019-03-23T22:06:43.254Z,31.47
2019-03-23T22:09:12.997Z,26.20
2019-03-23T22:11:43.058Z,21.20
2019-03-23T22:14:12.744Z,31.70
2019-03-23T22:16:42.447Z,23.03
2019-03-23T22:19:12.493Z,26.63
2019-03-23T22:21:42.198Z,28.07
2019-03-23T22:24:11.915Z,24.30
2019-03-23T22:26:41.650Z,34.93
2019-03-23T22:29:11.536Z,18.03
2019-03-23T22:31:41.238Z,23.17
2019-03-23T22:34:10.940Z,29.23
2019-03-23T22:36:40.674Z,25.33
2019-03-23T22:39:10.382Z,19.23
2019-03-23T22:41:40.083Z,30.43
2019-03-23T22:44:09.879Z,31.90
2019-03-23T22:46:39.572Z,22.33
2019-03-23T22:49:09.349Z,33.53
2019-03-23T22:51:39.059Z,25.23
2019-03-23T22:54:08.814Z,25.40
2019-03-23T22:56:38.528Z,30.47
2019-03-23T22:59:08.322Z,28.53
2019-03-23T23:01:38.050Z,22.57
2019-03-23T23:04:07.871Z,36.03
2019-03-23T23:06:37.567Z,27.03
2019-03-23T23:09:10.125Z,24.73
2019-03-23T23:11:39.900Z,25.77
2019-03-23T23:14:09.579Z,28.10
2019-03-23T23:16:39.312Z,23.43
2019-03-23T23:19:09.271Z,28.23
2019-03-23T23:21:39.011Z,29.30
2019-03-23T23:24:08.749Z,18.70
2019-03-23T23:26:38.474Z,28.83
2019-03-23T23:29:08.221Z,21.33
2019-03-23T23:31:37.938Z,33.13
2019-03-23T23:34:07.664Z,29.67
2019-03-23T23:36:37.387Z,29.10
2019-03-23T23:39:08.417Z,25.23
2019-03-23T23:41:38.138Z,24.27
2019-03-23T23:44:07.807Z,23.03
2019-03-23T23:46:37.542Z,29.07
2019-03-23T23:49:07.274Z,26.87
2019-03-23T23:51:36.965Z,24.23
2019-03-23T23:54:06.635Z,20.00
2019-03-23T23:56:36.393Z,30.87
2019-03-23T23:59:06.100Z,24.83
